createdAt,value
2022-10-11T00:01:53.100Z,9.14
2022-10-11T00:04:19.507Z,9.19
2022-10-11T00:06:47.196Z,9.29
2022-10-11T00:09:14.606Z,9.32
2022-10-11T00:11:40.981Z,9.34
2022-10-11T00:14:07.463Z,9.36
2022-10-11T00:16:34.459Z,9.40
2022-10-11T00:19:00.873Z,9.43
2022-10-11T00:21:27.323Z,9.49
2022-10-11T00:23:53.736Z,9.52
2022-10-11T00:26:20.125Z,9.58
2022-10-11T00:28:46.615Z,9.59
2022-10-11T00:31:16.216Z,9.58
2022-10-11T00:33:42.665Z,9.67
2022-10-11T00:36:09.841Z,9.72
2022-10-11T00:38:36.257Z,9.76
2022-10-11T00:41:02.788Z,9.76
2022-10-11T00:43:31.597Z,9.83
2022-10-11T00:45:58.116Z,9.86
2022-10-11T00:48:56.552Z,9.98
2022-10-11T00:51:34.200Z,10.06
2022-10-11T00:54:02.223Z,10.12
2022-10-11T00:56:34.050Z,10.14
2022-10-11T00:59:04.195Z,10.17
2022-10-11T01:01:31.082Z,10.23
2022-10-11T01:03:57.996Z,10.21
2022-10-11T01:06:24.708Z,10.26
2022-10-11T01:08:52.170Z,10.26
2022-10-11T01:11:22.970Z,10.31
2022-10-11T01:14:04.788Z,10.34
2022-10-11T01:16:41.644Z,10.36
2022-10-11T01:19:32.580Z,10.37
2022-10-11T01:22:17.676Z,10.38
2022-10-11T01:25:03.429Z,10.43
2022-10-11T01:27:51.055Z,10.48
2022-10-11T01:30:21.612Z,10.50
2022-10-11T01:32:57.434Z,10.49
2022-10-11T01:35:35.632Z,10.61
2022-10-11T01:38:11.326Z,10.54
2022-10-11T01:40:44.245Z,10.59
2022-10-11T01:43:10.981Z,10.63
2022-10-11T01:45:38.235Z,10.63
2022-10-11T01:48:14.208Z,10.66
2022-10-11T01:50:52.565Z,10.72
2022-10-11T01:53:37.615Z,10.65
2022-10-11T01:56:19.140Z,10.66
2022-10-11T01:58:54.658Z,10.68
2022-10-11T02:01:36.040Z,10.73
2022-10-11T02:04:31.450Z,10.67
2022-10-11T02:07:10.522Z,10.70
2022-10-11T02:09:42.350Z,10.72
2022-10-11T02:12:19.334Z,10.75
2022-10-11T02:14:48.631Z,10.75
2022-10-11T02:17:21.868Z,10.75
2022-10-11T02:19:52.416Z,10.74
2022-10-11T02:22:27.908Z,10.72
2022-10-11T02:24:57.415Z,10.74
2022-10-11T02:27:27.513Z,10.78
2022-10-11T02:29:56.521Z,10.74
2022-10-11T02:32:25.187Z,10.72
2022-10-11T02:34:54.914Z,10.80
2022-10-11T02:37:32.571Z,10.77
2022-10-11T02:40:15.773Z,10.78
2022-10-11T02:42:46.824Z,10.78
2022-10-11T02:45:22.885Z,10.88
2022-10-11T02:47:49.828Z,10.85
2022-10-11T02:50:16.525Z,10.81
2022-10-11T02:52:42.917Z,10.84
2022-10-11T02:55:10.160Z,10.82
2022-10-11T02:57:36.624Z,10.78
2022-10-11T03:00:04.623Z,10.77
2022-10-11T03:02:31.155Z,10.77
2022-10-11T03:04:57.611Z,10.75
2022-10-11T03:07:24.032Z,10.78
2022-10-11T03:09:50.405Z,10.81
2022-10-11T03:12:16.767Z,10.81
2022-10-11T03:14:43.218Z,10.80
2022-10-11T03:17:34.359Z,10.77
2022-10-11T03:19:56.002Z,10.80
2022-10-11T03:22:22.578Z,10.74
2022-10-11T03:24:48.990Z,10.72
2022-10-11T03:27:15.360Z,10.73
2022-10-11T03:29:41.754Z,10.68
2022-10-11T03:32:08.239Z,10.68
2022-10-11T03:34:34.696Z,10.70
2022-10-11T03:37:01.230Z,10.67
2022-10-11T03:39:27.643Z,10.70
2022-10-11T03:41:54.067Z,10.66
2022-10-11T03:44:20.586Z,10.52
2022-10-11T03:46:46.987Z,10.52
2022-10-11T03:49:13.367Z,10.47
2022-10-11T03:51:39.789Z,10.43
2022-10-11T03:54:06.153Z,10.43
2022-10-11T03:56:32.883Z,10.30
2022-10-11T03:58:59.340Z,10.27
2022-10-11T04:01:25.745Z,10.21
2022-10-11T04:03:55.323Z,10.14
2022-10-11T04:06:21.685Z,10.12
2022-10-11T04:08:48.071Z,10.13
2022-10-11T04:11:14.463Z,10.08
2022-10-11T04:13:40.859Z,10.05
2022-10-11T04:16:07.586Z,10.06
2022-10-11T04:18:34.302Z,10.03
2022-10-11T04:21:00.661Z,10.03
2022-10-11T04:23:27.214Z,9.98
2022-10-11T04:25:53.593Z,9.97
2022-10-11T04:28:20.108Z,9.92
2022-10-11T04:30:46.550Z,9.93
2022-10-11T04:33:12.996Z,9.86
2022-10-11T04:35:40.181Z,9.85
2022-10-11T04:38:06.597Z,9.85
2022-10-11T04:40:33.084Z,9.85
2022-10-11T04:42:59.630Z,9.87
2022-10-11T04:45:26.520Z,9.81
2022-10-11T04:47:52.889Z,9.75
2022-10-11T04:50:19.345Z,9.71
2022-10-11T04:52:45.759Z,9.72
2022-10-11T04:55:12.242Z,9.66
2022-10-11T04:57:38.598Z,9.58
2022-10-11T05:00:05.605Z,9.60
2022-10-11T05:02:32.231Z,9.51
2022-10-11T05:04:58.790Z,9.49
2022-10-11T05:07:25.177Z,9.46
2022-10-11T05:09:51.552Z,9.40
2022-10-11T05:12:17.966Z,9.34
2022-10-11T05:14:44.352Z,9.30
2022-10-11T05:17:10.817Z,9.21
2022-10-11T05:19:37.270Z,9.17
2022-10-11T05:22:03.715Z,9.08
2022-10-11T05:24:30.107Z,9.04
2022-10-11T05:26:59.809Z,8.98
2022-10-11T05:29:29.613Z,8.83
2022-10-11T05:31:56.038Z,8.86
2022-10-11T05:34:22.425Z,8.77
2022-10-11T05:36:48.833Z,8.75
2022-10-11T05:39:15.769Z,8.77
2022-10-11T05:41:42.133Z,8.78
2022-10-11T05:44:08.902Z,8.73
2022-10-11T05:46:35.324Z,8.64
2022-10-11T05:49:01.710Z,8.62
2022-10-11T05:51:28.153Z,8.67
2022-10-11T05:53:54.540Z,8.59
2022-10-11T05:56:23.335Z,8.50
2022-10-11T05:58:50.758Z,8.51
2022-10-11T06:01:22.533Z,8.59
2022-10-11T06:03:48.999Z,8.62
2022-10-11T06:06:16.211Z,8.65
2022-10-11T06:08:42.998Z,8.71
2022-10-11T06:11:14.955Z,8.76
2022-10-11T06:13:42.260Z,8.80
2022-10-11T06:16:09.167Z,8.93
2022-10-11T06:18:35.611Z,8.91
2022-10-11T06:21:02.163Z,9.03
2022-10-11T06:23:29.335Z,9.18
2022-10-11T06:26:00.188Z,9.22
2022-10-11T06:28:28.422Z,9.39
2022-10-11T06:30:56.216Z,9.50
2022-10-11T06:33:23.693Z,9.51
2022-10-11T06:35:50.439Z,9.66
2022-10-11T06:38:16.798Z,9.70
2022-10-11T06:40:43.297Z,9.83
2022-10-11T06:43:09.711Z,9.92
2022-10-11T06:45:36.117Z,10.21
2022-10-11T06:48:05.473Z,10.49
2022-10-11T06:50:57.987Z,11.01
2022-10-11T06:53:19.216Z,11.33
2022-10-11T06:55:45.584Z,11.32
2022-10-11T06:58:11.967Z,11.56
2022-10-11T07:00:38.500Z,11.56
2022-10-11T07:03:04.940Z,11.68
2022-10-11T07:05:32.916Z,11.82
2022-10-11T07:07:59.324Z,12.02
2022-10-11T07:10:25.788Z,12.29
2022-10-11T07:12:52.382Z,12.49
2022-10-11T07:15:18.848Z,12.78
2022-10-11T07:17:45.307Z,12.55
2022-10-11T07:20:12.319Z,12.87
2022-10-11T07:22:38.677Z,13.06
2022-10-11T07:25:05.466Z,13.41
2022-10-11T07:27:31.834Z,13.75
2022-10-11T07:29:58.234Z,13.80
2022-10-11T07:32:24.605Z,13.50
2022-10-11T07:34:50.994Z,13.36
2022-10-11T07:37:17.366Z,13.79
2022-10-11T07:39:43.730Z,14.19
2022-10-11T07:42:10.160Z,14.72
2022-10-11T07:44:36.578Z,14.77
2022-10-11T07:47:04.167Z,14.49
2022-10-11T07:49:32.135Z,14.58
2022-10-11T07:51:58.517Z,14.90
2022-10-11T07:54:25.129Z,14.72
2022-10-11T07:56:51.588Z,14.53
2022-10-11T07:59:18.076Z,14.80
2022-10-11T08:01:44.492Z,14.92
2022-10-11T08:04:10.988Z,14.23
2022-10-11T08:06:37.383Z,14.34
2022-10-11T08:09:05.734Z,14.01
2022-10-11T08:11:35.874Z,14.59
2022-10-11T08:14:05.256Z,13.84
2022-10-11T08:16:31.959Z,13.92
2022-10-11T08:18:58.426Z,13.97
2022-10-11T08:21:26.682Z,14.21
2022-10-11T08:23:53.112Z,14.83
2022-10-11T08:26:19.640Z,15.09
2022-10-11T08:28:46.166Z,15.10
2022-10-11T08:33:39.807Z,15.39
2022-10-11T08:36:07.171Z,15.95
2022-10-11T08:38:35.742Z,16.23
2022-10-11T08:41:02.381Z,16.54
2022-10-11T08:43:31.852Z,17.28
2022-10-11T08:46:01.185Z,17.26
2022-10-11T08:48:41.869Z,16.88
2022-10-11T08:51:20.784Z,16.54
2022-10-11T08:53:51.659Z,16.54
2022-10-11T08:56:20.195Z,16.25
2022-10-11T08:59:08.727Z,15.80
2022-10-11T09:01:35.989Z,16.32
2022-10-11T09:04:03.599Z,15.75
2022-10-11T09:06:54.542Z,16.02
2022-10-11T09:09:36.133Z,15.09
2022-10-11T09:12:41.678Z,14.79
2022-10-11T09:15:24.449Z,15.06
2022-10-11T09:17:56.720Z,15.73
2022-10-11T09:20:32.322Z,15.74
2022-10-11T09:23:37.697Z,15.44
2022-10-11T09:26:30.711Z,15.11
2022-10-11T09:29:15.557Z,15.19
2022-10-11T09:31:47.557Z,15.00
2022-10-11T09:34:15.692Z,14.62
2022-10-11T09:37:11.315Z,14.26
2022-10-11T09:39:42.236Z,13.81
2022-10-11T09:42:10.855Z,14.08
2022-10-11T09:44:39.141Z,14.55
2022-10-11T09:47:07.212Z,14.55
2022-10-11T09:49:41.028Z,14.83
2022-10-11T09:52:16.122Z,15.34
2022-10-11T09:54:45.805Z,15.91
2022-10-11T09:57:36.085Z,16.09
2022-10-11T10:00:20.315Z,16.24
2022-10-11T10:02:49.323Z,16.39
2022-10-11T10:05:18.608Z,15.78
2022-10-11T10:08:02.851Z,15.61
2022-10-11T10:10:34.093Z,15.69
2022-10-11T10:13:03.873Z,15.90
2022-10-11T10:15:36.903Z,16.17
2022-10-11T10:18:06.036Z,16.45
2022-10-11T10:20:34.825Z,16.92
2022-10-11T10:23:09.438Z,17.07
2022-10-11T10:25:43.075Z,16.28
2022-10-11T10:28:27.244Z,15.76
2022-10-11T10:30:57.018Z,15.38
2022-10-11T10:33:25.786Z,14.79
2022-10-11T10:36:16.353Z,14.22
2022-10-11T10:39:12.169Z,14.15
2022-10-11T10:41:38.791Z,14.06
2022-10-11T10:44:05.741Z,14.38
2022-10-11T10:46:37.895Z,14.44
2022-10-11T10:49:52.508Z,14.86
2022-10-11T10:52:39.330Z,14.96
2022-10-11T10:55:22.119Z,15.07
2022-10-11T10:58:36.374Z,15.26
2022-10-11T11:01:13.258Z,15.64
2022-10-11T11:03:44.908Z,15.98
2022-10-11T11:06:23.658Z,16.19
2022-10-11T11:09:01.937Z,16.33
2022-10-11T11:11:36.816Z,16.32
2022-10-11T11:14:08.227Z,16.24
2022-10-11T11:16:45.030Z,15.97
2022-10-11T11:19:37.866Z,15.07
2022-10-11T11:22:26.284Z,15.03
2022-10-11T11:25:20.456Z,14.82
2022-10-11T11:27:59.375Z,14.54
2022-10-11T11:30:56.831Z,14.43
2022-10-11T11:33:38.500Z,14.46
2022-10-11T11:36:12.810Z,14.49
2022-10-11T11:38:50.511Z,14.91
2022-10-11T11:41:25.823Z,14.95
2022-10-11T11:44:14.048Z,15.14
2022-10-11T11:46:46.038Z,14.88
2022-10-11T11:49:19.145Z,14.76
2022-10-11T11:51:46.392Z,14.63
2022-10-11T11:54:32.212Z,14.61
2022-10-11T11:57:12.842Z,14.62
2022-10-11T11:59:51.466Z,14.82
2022-10-11T12:02:41.311Z,14.87
2022-10-11T12:05:10.558Z,15.10
2022-10-11T12:08:08.350Z,15.43
2022-10-11T12:10:53.576Z,15.41
2022-10-11T12:13:37.756Z,15.58
2022-10-11T12:16:04.166Z,15.73
2022-10-11T12:18:33.927Z,15.64
2022-10-11T12:21:17.104Z,15.68
2022-10-11T12:23:52.397Z,15.81
2022-10-11T12:26:31.679Z,15.52
2022-10-11T12:29:28.402Z,15.52
2022-10-11T12:31:58.393Z,15.39
2022-10-11T12:34:44.043Z,15.14
2022-10-11T12:37:22.779Z,14.93
2022-10-11T12:39:51.657Z,14.69
2022-10-11T12:42:20.286Z,14.46
2022-10-11T12:45:13.062Z,14.28
2022-10-11T12:48:10.669Z,14.25
2022-10-11T12:50:37.009Z,14.23
2022-10-11T12:53:06.104Z,14.22
2022-10-11T12:56:00.339Z,14.36
2022-10-11T12:58:41.154Z,14.41
2022-10-11T13:01:33.263Z,14.39
2022-10-11T13:04:12.038Z,14.44
2022-10-11T13:06:51.028Z,14.46
2022-10-11T13:09:31.750Z,14.53
2022-10-11T13:12:04.841Z,14.44
2022-10-11T13:14:36.301Z,14.53
2022-10-11T13:17:02.898Z,14.48
2022-10-11T13:19:31.368Z,14.53
2022-10-11T13:22:00.615Z,14.65
2022-10-11T13:24:34.170Z,14.82
2022-10-11T13:27:01.920Z,14.81
2022-10-11T13:29:38.180Z,14.73
2022-10-11T13:32:08.361Z,14.86
2022-10-11T13:34:39.071Z,14.69
2022-10-11T13:37:06.830Z,14.48
2022-10-11T13:39:39.111Z,14.62
2022-10-11T13:42:10.161Z,14.49
2022-10-11T13:44:38.323Z,14.24
2022-10-11T13:47:05.497Z,14.34
2022-10-11T13:49:38.118Z,14.13
2022-10-11T13:52:18.504Z,14.17
2022-10-11T13:55:03.822Z,14.05
2022-10-11T13:57:45.936Z,13.91
2022-10-11T14:00:15.573Z,13.85
2022-10-11T14:02:51.927Z,13.75
2022-10-11T14:05:23.568Z,13.73
2022-10-11T14:07:50.431Z,13.66
2022-10-11T14:10:22.061Z,13.63
2022-10-11T14:13:00.439Z,13.60
2022-10-11T14:15:32.090Z,13.65
2022-10-11T14:18:00.299Z,13.71
2022-10-11T14:20:39.025Z,13.70
2022-10-11T14:23:07.369Z,13.71
2022-10-11T14:25:34.157Z,13.68
2022-10-11T14:28:01.190Z,13.64
2022-10-11T14:30:31.322Z,13.62
2022-10-11T14:33:01.185Z,13.59
2022-10-11T14:35:30.379Z,13.57
2022-10-11T14:37:56.746Z,13.54
2022-10-11T14:40:25.895Z,13.55
2022-10-11T14:42:52.269Z,13.46
2022-10-11T14:45:21.160Z,13.50
2022-10-11T14:47:47.673Z,13.51
2022-10-11T14:50:40.446Z,13.50
2022-10-11T14:53:08.216Z,13.51
2022-10-11T14:55:36.727Z,13.50
2022-10-11T14:58:04.208Z,13.44
2022-10-11T15:00:30.918Z,13.38
2022-10-11T15:02:57.650Z,13.37
2022-10-11T15:05:29.847Z,13.33
2022-10-11T15:07:59.217Z,13.32
2022-10-11T15:10:28.303Z,13.28
2022-10-11T15:12:56.261Z,13.21
2022-10-11T15:15:25.524Z,13.03
2022-10-11T15:17:57.827Z,13.00
2022-10-11T15:20:28.498Z,13.02
2022-10-11T15:22:56.121Z,12.88
2022-10-11T15:25:23.323Z,12.83
2022-10-11T15:27:49.983Z,12.84
2022-10-11T15:30:21.285Z,12.76
2022-10-11T15:32:48.205Z,12.76
2022-10-11T15:35:15.274Z,12.71
2022-10-11T15:37:41.956Z,12.67
2022-10-11T15:40:19.485Z,12.62
2022-10-11T15:42:46.391Z,12.54
2022-10-11T15:45:13.171Z,12.52
2022-10-11T15:47:39.633Z,12.45
2022-10-11T15:50:24.334Z,12.46
2022-10-11T15:52:51.759Z,12.45
2022-10-11T15:55:18.240Z,12.20
2022-10-11T15:57:44.638Z,12.20
2022-10-11T16:00:11.354Z,11.99
2022-10-11T16:02:37.738Z,11.94
2022-10-11T16:05:04.453Z,11.79
2022-10-11T16:07:30.944Z,11.67
2022-10-11T16:09:57.306Z,11.58
2022-10-11T16:12:23.770Z,11.52
2022-10-11T16:14:50.129Z,11.46
2022-10-11T16:17:16.512Z,11.34
2022-10-11T16:19:42.861Z,11.32
2022-10-11T16:22:09.250Z,11.29
2022-10-11T16:24:35.785Z,11.27
2022-10-11T16:27:02.381Z,11.21
2022-10-11T16:29:28.953Z,11.06
2022-10-11T16:31:55.364Z,10.85
2022-10-11T16:34:21.888Z,10.84
2022-10-11T16:36:48.263Z,10.71
2022-10-11T16:39:19.704Z,10.86
2022-10-11T16:41:46.885Z,10.66
2022-10-11T16:44:21.215Z,10.62
2022-10-11T16:46:48.876Z,10.50
2022-10-11T16:49:21.983Z,10.55
2022-10-11T16:51:49.982Z,10.35
2022-10-11T16:54:20.496Z,10.18
2022-10-11T16:56:48.407Z,10.05
2022-10-11T16:59:15.164Z,10.05
2022-10-11T17:01:41.735Z,10.06
2022-10-11T17:04:09.167Z,9.95
2022-10-11T17:06:35.862Z,9.91
2022-10-11T17:09:02.301Z,9.99
2022-10-11T17:11:28.722Z,9.88
2022-10-11T17:13:55.184Z,9.72
2022-10-11T17:16:22.648Z,9.64
2022-10-11T17:18:49.624Z,9.70
2022-10-11T17:21:17.945Z,9.67
2022-10-11T17:23:44.638Z,9.58
2022-10-11T17:26:16.165Z,9.49
2022-10-11T17:28:42.777Z,9.46
2022-10-11T17:31:10.155Z,9.48
2022-10-11T17:33:36.699Z,9.37
2022-10-11T17:36:14.153Z,9.20
2022-10-11T17:38:40.451Z,9.13
2022-10-11T17:41:10.456Z,9.18
2022-10-11T17:43:36.834Z,9.09
2022-10-11T17:46:06.330Z,9.28
2022-10-11T17:48:36.594Z,9.19
2022-10-11T17:51:11.433Z,9.04
2022-10-11T17:53:38.108Z,9.14
2022-10-11T17:56:10.125Z,8.90
2022-10-11T17:58:37.132Z,8.83
2022-10-11T18:01:16.481Z,8.62
2022-10-11T18:03:43.953Z,8.57
2022-10-11T18:06:12.498Z,8.56
2022-10-11T18:08:40.907Z,8.72
2022-10-11T18:11:13.315Z,8.60
2022-10-11T18:13:42.657Z,8.49
2022-10-11T18:16:09.933Z,8.25
2022-10-11T18:18:36.615Z,8.06
2022-10-11T18:21:03.225Z,8.43
2022-10-11T18:23:29.645Z,8.47
2022-10-11T18:25:56.031Z,8.38
2022-10-11T18:28:22.529Z,8.31
2022-10-11T18:30:49.211Z,8.36
2022-10-11T18:33:16.480Z,8.43
2022-10-11T18:35:42.882Z,7.80
2022-10-11T18:38:09.315Z,7.55
2022-10-11T18:40:44.693Z,7.55
2022-10-11T18:43:13.310Z,7.50
2022-10-11T18:45:39.694Z,7.67
2022-10-11T18:48:08.199Z,7.81
2022-10-11T18:50:35.613Z,7.71
2022-10-11T18:55:29.586Z,7.43
2022-10-11T18:57:56.284Z,7.48
2022-10-11T19:00:40.273Z,7.52
2022-10-11T19:03:07.856Z,7.43
2022-10-11T19:05:34.236Z,7.37
2022-10-11T19:08:00.862Z,7.12
2022-10-11T19:10:27.349Z,7.32
2022-10-11T19:12:53.764Z,7.29
2022-10-11T19:15:20.168Z,7.16
2022-10-11T19:17:46.643Z,7.04
2022-10-11T19:20:13.058Z,6.81
2022-10-11T19:22:39.416Z,7.07
2022-10-11T19:25:06.527Z,7.10
2022-10-11T19:27:32.939Z,7.10
2022-10-11T19:30:00.390Z,7.12
2022-10-11T19:32:26.922Z,7.13
2022-10-11T19:34:53.348Z,7.13
2022-10-11T19:37:19.704Z,6.79
2022-10-11T19:39:46.063Z,6.69
2022-10-11T19:42:12.453Z,6.81
2022-10-11T19:44:39.639Z,6.83
2022-10-11T19:47:06.365Z,6.95
2022-10-11T19:49:32.794Z,7.03
2022-10-11T19:51:59.195Z,7.02
2022-10-11T19:54:25.603Z,6.68
2022-10-11T19:56:52.507Z,6.46
2022-10-11T19:59:18.961Z,6.56
2022-10-11T20:01:49.601Z,6.68
2022-10-11T20:04:39.525Z,6.65
2022-10-11T20:07:05.001Z,6.44
2022-10-11T20:09:31.382Z,6.40
2022-10-11T20:11:58.353Z,6.61
2022-10-11T20:14:25.097Z,6.67
2022-10-11T20:16:51.557Z,6.51
2022-10-11T20:19:18.690Z,6.64
2022-10-11T20:21:45.373Z,6.63
2022-10-11T20:24:12.461Z,6.46
2022-10-11T20:26:39.344Z,6.48
2022-10-11T20:29:06.220Z,6.42
2022-10-11T20:31:34.289Z,6.22
2022-10-11T20:34:04.055Z,6.49
2022-10-11T20:36:32.293Z,6.26
2022-10-11T20:38:59.841Z,6.26
2022-10-11T20:41:27.718Z,6.25
2022-10-11T20:43:56.342Z,6.04
2022-10-11T20:46:24.832Z,6.16
2022-10-11T20:48:57.614Z,6.12
2022-10-11T20:51:27.468Z,5.98
2022-10-11T20:53:54.469Z,6.10
2022-10-11T20:56:22.021Z,6.12
2022-10-11T20:58:54.821Z,6.15
2022-10-11T21:01:23.933Z,6.08
2022-10-11T21:03:55.765Z,5.94
2022-10-11T21:06:22.172Z,5.85
2022-10-11T21:08:48.549Z,6.03
2022-10-11T21:11:15.035Z,5.95
2022-10-11T21:13:42.018Z,6.02
2022-10-11T21:16:12.627Z,5.87
2022-10-11T21:18:39.512Z,5.88
2022-10-11T21:21:08.536Z,5.76
2022-10-11T21:23:35.054Z,5.85
2022-10-11T21:26:02.903Z,5.85
2022-10-11T21:28:29.857Z,5.68
2022-10-11T21:31:02.871Z,5.71
2022-10-11T21:33:30.139Z,5.77
2022-10-11T21:35:57.423Z,5.83
2022-10-11T21:38:23.803Z,5.71
2022-10-11T21:40:50.175Z,5.84
2022-10-11T21:43:16.549Z,5.79
2022-10-11T21:45:43.150Z,5.61
2022-10-11T21:48:09.533Z,5.71
2022-10-11T21:50:35.891Z,5.80
2022-10-11T21:53:02.321Z,5.71
2022-10-11T21:55:28.752Z,5.58
2022-10-11T21:57:55.606Z,5.68
2022-10-11T22:00:21.954Z,5.70
2022-10-11T22:02:48.661Z,5.70
2022-10-11T22:05:15.115Z,5.68
2022-10-11T22:07:41.493Z,5.60
2022-10-11T22:10:07.922Z,5.63
2022-10-11T22:12:34.633Z,5.71
2022-10-11T22:15:01.374Z,5.61
2022-10-11T22:17:27.799Z,5.63
2022-10-11T22:19:54.156Z,5.59
2022-10-11T22:22:20.541Z,5.56
2022-10-11T22:24:46.894Z,5.59
2022-10-11T22:27:13.315Z,5.59
2022-10-11T22:29:39.684Z,5.49
2022-10-11T22:32:06.065Z,5.50
2022-10-11T22:34:33.138Z,5.44
2022-10-11T22:36:59.521Z,5.38
2022-10-11T22:39:25.855Z,5.47
2022-10-11T22:41:53.823Z,5.56
2022-10-11T22:44:20.564Z,5.35
2022-10-11T22:46:47.029Z,5.28
2022-10-11T22:49:13.413Z,5.25
2022-10-11T22:51:39.873Z,5.32
2022-10-11T22:54:06.236Z,5.42
2022-10-11T22:56:32.619Z,5.05
2022-10-11T22:58:59.412Z,5.13
2022-10-11T23:01:25.799Z,4.94
2022-10-11T23:03:52.238Z,5.03
2022-10-11T23:06:18.704Z,4.95
2022-10-11T23:08:45.061Z,4.93
2022-10-11T23:11:11.939Z,4.96
2022-10-11T23:13:38.476Z,5.02
2022-10-11T23:16:09.310Z,5.07
2022-10-11T23:18:35.942Z,5.01
2022-10-11T23:21:03.153Z,4.85
2022-10-11T23:23:29.705Z,4.82
2022-10-11T23:26:11.456Z,4.87
2022-10-11T23:28:38.392Z,5.08
2022-10-11T23:31:10.673Z,4.93
2022-10-11T23:33:37.138Z,4.85
2022-10-11T23:36:04.129Z,4.80
2022-10-11T23:38:30.649Z,4.80
2022-10-11T23:40:57.131Z,4.93
2022-10-11T23:43:23.588Z,4.95
2022-10-11T23:45:50.063Z,4.90
2022-10-11T23:48:16.441Z,4.88
2022-10-11T23:50:42.819Z,4.84
2022-10-11T23:53:10.528Z,4.98
2022-10-11T23:55:36.923Z,5.02
2022-10-11T23:58:03.299Z,5.02
